Time;durP1;ratioP1;P1;durP2;ratioP2;P2;SDS_P1;SDS_P2;PMS_P1;PMS_P2;Temp;Humidity;BMP_temperature;BMP_pressure;BME280_temperature;BME280_humidity;BME280_pressure;Samples;Min_cycle;Max_cycle;Signal;HPM_P1;HPM_P2
2023/05/29 00:02:08;;;;;;;20.58;3.08;;;10.30;99.90;;;;;;5056438;28;20076;-65
2023/05/29 00:04:34;;;;;;;16.65;3.50;;;10.40;99.90;;;;;;5051542;28;20041;-65
2023/05/29 00:06:59;;;;;;;16.92;3.38;;;10.40;99.90;;;;;;5054841;28;20041;-65
2023/05/29 00:09:25;;;;;;;15.38;3.40;;;10.30;99.90;;;;;;5049762;28;20036;-65
2023/05/29 00:11:52;;;;;;;17.88;3.45;;;10.30;99.90;;;;;;5050305;28;20052;-65
2023/05/29 00:14:22;;;;;;;21.55;3.08;;;10.30;99.90;;;;;;5052824;28;20091;-65
2023/05/29 00:16:48;;;;;;;13.70;3.22;;;10.30;99.90;;;;;;5050118;28;20643;-65
2023/05/29 00:19:16;;;;;;;13.77;3.42;;;10.30;99.90;;;;;;5054987;28;20040;-65
2023/05/29 00:21:43;;;;;;;17.58;3.40;;;10.20;99.90;;;;;;5052201;28;20437;-65
2023/05/29 00:24:08;;;;;;;15.05;2.88;;;10.20;99.90;;;;;;5052458;28;20045;-65
2023/05/29 00:26:34;;;;;;;16.27;3.42;;;10.20;99.90;;;;;;5045843;28;20487;-65
2023/05/29 00:28:59;;;;;;;13.80;3.30;;;10.20;99.90;;;;;;5052911;28;20094;-65
2023/05/29 00:31:25;;;;;;;14.52;3.00;;;10.10;99.90;;;;;;5050713;28;20052;-65
2023/05/29 00:33:51;;;;;;;20.65;4.07;;;10.10;99.90;;;;;;5048976;28;20150;-65
2023/05/29 00:36:16;;;;;;;14.68;2.83;;;10.10;99.90;;;;;;5050390;28;20047;-65
2023/05/29 00:38:42;;;;;;;16.67;3.45;;;10.10;99.90;;;;;;5047025;28;20120;-65
2023/05/29 00:41:12;;;;;;;14.85;3.30;;;10.10;99.90;;;;;;5047909;28;20627;-65
2023/05/29 00:43:38;;;;;;;20.80;3.70;;;10.00;99.90;;;;;;5044256;28;20415;-65
2023/05/29 00:46:04;;;;;;;15.93;3.05;;;10.00;99.90;;;;;;5051493;28;20044;-65
2023/05/29 00:48:30;;;;;;;17.55;3.10;;;10.00;99.90;;;;;;5052725;28;20470;-65
2023/05/29 00:50:55;;;;;;;13.88;3.00;;;10.00;99.90;;;;;;5051474;28;20056;-65
2023/05/29 00:53:22;;;;;;;21.83;3.40;;;9.90;99.90;;;;;;5052289;28;20037;-65
2023/05/29 00:55:48;;;;;;;11.90;3.00;;;9.90;99.90;;;;;;5051999;28;20041;-65
2023/05/29 00:58:14;;;;;;;15.93;2.83;;;9.90;99.90;;;;;;5051118;28;20037;-65
2023/05/29 01:00:40;;;;;;;16.17;3.15;;;9.90;99.90;;;;;;5050034;28;20040;-65
2023/05/29 01:03:07;;;;;;;16.05;2.30;;;9.90;99.90;;;;;;5054117;28;20418;-65
2023/05/29 01:05:35;;;;;;;14.82;3.00;;;9.80;99.90;;;;;;5057316;28;20120;-65
2023/05/29 01:08:02;;;;;;;15.32;2.97;;;9.90;99.90;;;;;;5052518;28;20037;-65
2023/05/29 01:10:28;;;;;;;16.20;3.08;;;9.90;99.90;;;;;;5049959;28;20052;-65
2023/05/29 01:13:17;;;;;;;18.17;3.10;;;9.80;99.90;;;;;;5051002;28;20043;-65
2023/05/29 01:15:58;;;;;;;13.40;2.58;;;9.80;99.90;;;;;;5067817;28;20150;-65
2023/05/29 01:18:31;;;;;;;;;;;9.80;99.90;;;;;;5072499;28;20514;-65
2023/05/29 01:21:18;;;;;;;19.55;2.70;;;9.70;99.90;;;;;;5054552;28;19917;-65
2023/05/29 01:24:15;;;;;;;16.95;2.92;;;9.70;99.90;;;;;;5043286;28;20033;-65
2023/05/29 01:26:50;;;;;;;16.40;2.88;;;9.70;99.90;;;;;;5046858;28;20044;-65
2023/05/29 01:29:19;;;;;;;22.00;3.00;;;9.70;99.90;;;;;;5046367;28;20110;-65
2023/05/29 01:31:46;;;;;;;15.73;3.00;;;9.60;99.90;;;;;;5050468;28;20033;-65
2023/05/29 01:34:12;;;;;;;19.48;3.03;;;9.60;99.90;;;;;;5062923;28;20401;-65
2023/05/29 01:36:37;;;;;;;15.05;3.28;;;9.60;99.90;;;;;;5055933;28;20111;-65
2023/05/29 01:39:05;;;;;;;15.40;2.80;;;9.60;99.90;;;;;;5043906;28;20037;-65
2023/05/29 01:41:32;;;;;;;15.57;2.80;;;9.60;99.90;;;;;;5043601;28;20111;-65
2023/05/29 01:43:59;;;;;;;14.25;2.92;;;9.60;99.90;;;;;;5052933;28;20045;-65
2023/05/29 01:46:25;;;;;;;20.13;2.83;;;9.60;99.90;;;;;;5050373;28;20108;-65
2023/05/29 01:48:52;;;;;;;17.75;2.85;;;9.60;99.90;;;;;;5047040;28;20642;-65
2023/05/29 01:51:18;;;;;;;17.58;3.28;;;9.60;99.90;;;;;;5050857;28;20068;-65
2023/05/29 01:53:46;;;;;;;16.83;3.58;;;9.60;99.90;;;;;;5046433;28;20095;-65
2023/05/29 01:56:12;;;;;;;15.98;3.03;;;9.60;99.90;;;;;;5051563;28;20123;-65
2023/05/29 01:58:39;;;;;;;17.63;3.53;;;9.50;99.90;;;;;;5051355;28;20483;-65
2023/05/29 02:01:06;;;;;;;15.30;2.72;;;9.50;99.90;;;;;;5048986;28;20056;-65
2023/05/29 02:03:32;;;;;;;15.73;3.05;;;9.50;99.90;;;;;;5061625;28;20072;-65
2023/05/29 02:05:59;;;;;;;15.00;2.85;;;9.50;99.90;;;;;;5048376;28;20037;-65
2023/05/29 02:08:25;;;;;;;15.50;3.35;;;9.50;99.90;;;;;;5051610;28;20033;-65
2023/05/29 02:10:51;;;;;;;15.68;3.05;;;9.50;99.90;;;;;;5050723;28;20154;-65
2023/05/29 02:13:16;;;;;;;17.65;3.75;;;9.50;99.90;;;;;;5051695;28;20036;-64
2023/05/29 02:15:42;;;;;;;14.90;2.72;;;9.50;99.90;;;;;;5049509;28;20032;-65
2023/05/29 02:18:14;;;;;;;14.48;3.15;;;9.50;99.90;;;;;;5048360;28;20045;-65
2023/05/29 02:20:39;;;;;;;;;;;9.50;99.90;;;;;;5043795;28;20029;-65
2023/05/29 02:23:05;;;;;;;16.42;3.17;;;9.40;99.90;;;;;;5054987;28;19978;-65
2023/05/29 02:25:30;;;;;;;18.08;3.13;;;9.40;99.90;;;;;;5048570;28;20069;-65
2023/05/29 02:27:56;;;;;;;17.15;3.55;;;9.30;99.90;;;;;;5050002;28;20124;-65
2023/05/29 02:30:22;;;;;;;15.68;3.03;;;9.30;99.90;;;;;;5085097;22;20040;-66
2023/05/29 02:32:47;;;;;;;13.98;3.10;;;9.30;99.90;;;;;;5087404;28;20036;-66
2023/05/29 02:35:15;;;;;;;14.23;3.13;;;9.30;99.90;;;;;;5088676;28;20678;-66
2023/05/29 02:37:41;;;;;;;15.95;3.40;;;9.30;99.90;;;;;;5086846;28;20044;-66
2023/05/29 02:40:08;;;;;;;15.38;2.35;;;9.30;99.90;;;;;;5087845;28;20036;-66
2023/05/29 02:42:33;;;;;;;19.70;3.08;;;9.20;99.90;;;;;;5082111;28;20041;-66
2023/05/29 02:44:59;;;;;;;22.60;3.35;;;9.20;99.90;;;;;;5088905;28;20036;-66
2023/05/29 02:47:25;;;;;;;16.58;4.05;;;9.20;99.90;;;;;;5083653;28;20037;-66
2023/05/29 02:49:50;;;;;;;18.88;3.22;;;9.30;99.90;;;;;;5090150;28;20502;-66
2023/05/29 02:52:16;;;;;;;13.85;3.28;;;9.20;99.90;;;;;;5092044;28;20032;-66
2023/05/29 02:54:41;;;;;;;15.55;3.38;;;9.20;99.90;;;;;;5093272;28;20074;-66
2023/05/29 02:57:07;;;;;;;16.92;3.05;;;9.20;99.90;;;;;;5092654;28;20547;-67
2023/05/29 02:59:33;;;;;;;18.42;3.45;;;9.20;99.90;;;;;;5094901;28;20044;-66
2023/05/29 03:01:58;;;;;;;19.95;3.28;;;9.20;99.90;;;;;;5091468;28;20085;-66
2023/05/29 03:04:24;;;;;;;19.98;3.72;;;9.20;99.90;;;;;;5091374;28;20044;-66
2023/05/29 03:06:49;;;;;;;17.25;3.03;;;9.20;99.90;;;;;;5094269;28;20074;-65
2023/05/29 03:09:16;;;;;;;13.85;2.95;;;9.20;99.90;;;;;;5094195;28;20036;-66
2023/05/29 03:11:42;;;;;;;17.45;3.55;;;9.10;99.90;;;;;;5092616;28;20043;-66
2023/05/29 03:14:08;;;;;;;18.15;3.20;;;9.10;99.90;;;;;;5093357;28;20044;-66
2023/05/29 03:16:35;;;;;;;17.73;3.55;;;9.10;99.90;;;;;;5084322;28;20837;-65
2023/05/29 03:19:01;;;;;;;15.30;3.22;;;9.10;99.90;;;;;;5090291;28;20036;-66
2023/05/29 03:21:27;;;;;;;14.90;3.08;;;9.10;99.90;;;;;;5089945;28;20040;-65
2023/05/29 03:23:52;;;;;;;16.80;3.50;;;9.00;99.90;;;;;;5085585;28;20040;-66
2023/05/29 03:26:18;;;;;;;18.58;3.13;;;9.00;99.90;;;;;;5085955;28;20043;-66
2023/05/29 03:28:43;;;;;;;18.73;2.83;;;9.00;99.90;;;;;;5091495;28;20123;-65
2023/05/29 03:31:09;;;;;;;17.85;3.20;;;9.00;99.90;;;;;;5087078;28;20032;-66
2023/05/29 03:33:36;;;;;;;13.20;2.92;;;9.00;99.90;;;;;;5087031;28;20036;-66
2023/05/29 03:36:02;;;;;;;14.48;3.45;;;9.00;99.90;;;;;;5091155;28;20127;-66
2023/05/29 03:38:28;;;;;;;20.10;2.83;;;9.00;99.90;;;;;;5091854;28;20123;-66
2023/05/29 03:40:54;;;;;;;16.05;2.85;;;9.00;99.90;;;;;;5088618;28;20047;-67
2023/05/29 03:43:19;;;;;;;14.95;3.20;;;9.00;99.90;;;;;;5091022;28;20040;-66
2023/05/29 03:45:45;;;;;;;12.10;2.83;;;9.00;99.90;;;;;;5092799;28;20036;-66
2023/05/29 03:48:11;;;;;;;18.08;3.45;;;9.00;99.90;;;;;;5093361;28;20032;-67
2023/05/29 03:50:36;;;;;;;16.17;2.90;;;9.00;99.90;;;;;;5092159;28;20101;-66
2023/05/29 03:53:02;;;;;;;10.63;2.38;;;9.00;99.90;;;;;;5086066;28;20051;-66
2023/05/29 03:55:28;;;;;;;17.63;3.15;;;9.00;99.90;;;;;;5092196;28;20036;-66
2023/05/29 03:57:53;;;;;;;14.35;2.97;;;9.00;99.90;;;;;;5091909;28;20067;-66
2023/05/29 04:00:19;;;;;;;14.98;2.72;;;9.00;99.90;;;;;;5090649;28;20036;-66
2023/05/29 04:02:45;;;;;;;12.70;2.78;;;9.00;99.90;;;;;;5082391;28;20040;-66
2023/05/29 04:05:12;;;;;;;11.88;2.80;;;9.00;99.90;;;;;;5089519;28;20028;-66
2023/05/29 04:07:38;;;;;;;16.25;2.85;;;9.00;99.90;;;;;;5091864;28;20051;-66
2023/05/29 04:10:06;;;;;;;19.02;3.72;;;9.00;99.90;;;;;;5073050;28;20111;-66
2023/05/29 04:12:32;;;;;;;14.48;3.38;;;9.00;99.90;;;;;;5088645;28;20051;-66
2023/05/29 04:14:58;;;;;;;10.10;2.95;;;9.00;99.90;;;;;;5091827;28;20062;-66
2023/05/29 04:17:23;;;;;;;10.77;2.30;;;9.00;99.90;;;;;;5092203;28;20497;-66
2023/05/29 04:19:49;;;;;;;14.25;3.15;;;9.00;99.90;;;;;;5091669;28;20044;-66
2023/05/29 04:22:15;;;;;;;21.27;3.28;;;9.10;99.90;;;;;;5091872;28;20032;-66
2023/05/29 04:24:41;;;;;;;16.75;3.38;;;9.10;99.90;;;;;;5091331;28;20039;-66
2023/05/29 04:27:08;;;;;;;16.17;2.92;;;9.10;99.90;;;;;;5090610;28;20032;-66
2023/05/29 04:29:34;;;;;;;18.33;3.65;;;9.20;99.90;;;;;;5090820;28;20115;-66
2023/05/29 04:32:03;;;;;;;12.73;3.25;;;9.10;99.90;;;;;;5090240;28;20036;-66
2023/05/29 04:34:30;;;;;;;16.17;2.83;;;9.20;99.90;;;;;;5089361;28;20071;-66
2023/05/29 04:36:58;;;;;;;13.55;2.83;;;9.20;99.90;;;;;;5092597;28;20461;-66
2023/05/29 04:39:25;;;;;;;14.93;3.60;;;9.20;99.90;;;;;;5090378;28;20036;-66
2023/05/29 04:41:51;;;;;;;17.55;2.90;;;9.30;99.90;;;;;;5090260;28;20036;-66
2023/05/29 04:44:17;;;;;;;18.17;3.70;;;9.30;99.90;;;;;;5091934;28;20082;-66
2023/05/29 04:46:44;;;;;;;15.18;2.70;;;9.30;99.90;;;;;;5082748;28;20060;-66
2023/05/29 04:49:12;;;;;;;11.63;2.67;;;9.30;99.90;;;;;;5088622;28;20028;-66
2023/05/29 04:51:40;;;;;;;13.25;2.47;;;9.40;99.90;;;;;;5090902;28;20130;-66
2023/05/29 04:54:06;;;;;;;14.90;2.90;;;9.40;99.90;;;;;;5090814;28;20043;-66
2023/05/29 04:56:32;;;;;;;14.02;2.90;;;9.40;99.90;;;;;;5089732;28;20086;-66
2023/05/29 04:58:58;;;;;;;18.00;2.53;;;9.50;99.90;;;;;;5079765;28;20455;-66
2023/05/29 05:01:25;;;;;;;21.63;2.92;;;9.50;99.90;;;;;;5088812;28;20064;-66
2023/05/29 05:03:54;;;;;;;13.88;2.83;;;9.60;99.90;;;;;;5088466;28;20096;-66
2023/05/29 05:06:19;;;;;;;12.90;3.20;;;9.60;99.90;;;;;;5083958;28;20032;-66
2023/05/29 05:08:45;;;;;;;12.25;2.83;;;9.70;99.90;;;;;;5089667;28;20044;-66
2023/05/29 05:11:11;;;;;;;11.77;2.80;;;9.80;99.90;;;;;;5090171;28;20032;-66
2023/05/29 05:13:36;;;;;;;12.52;2.70;;;9.90;99.90;;;;;;5089947;28;20413;-66
2023/05/29 05:16:02;;;;;;;15.18;3.03;;;10.00;99.90;;;;;;5086550;28;20412;-66
2023/05/29 05:18:28;;;;;;;19.42;3.13;;;10.10;99.90;;;;;;5089018;28;20036;-66
2023/05/29 05:20:54;;;;;;;13.10;2.80;;;10.20;99.90;;;;;;5088260;28;20028;-66
2023/05/29 05:23:19;;;;;;;13.98;2.83;;;10.30;99.90;;;;;;5087337;28;20122;-65
2023/05/29 05:25:45;;;;;;;16.00;2.97;;;10.40;99.90;;;;;;5089368;28;20118;-66
2023/05/29 05:28:11;;;;;;;15.50;2.95;;;10.40;99.90;;;;;;5088894;28;20042;-66
2023/05/29 05:30:36;;;;;;;13.10;3.10;;;10.50;99.90;;;;;;5088042;28;20028;-65
2023/05/29 05:33:02;;;;;;;11.75;3.10;;;10.50;99.90;;;;;;5092035;28;20032;-65
2023/05/29 05:35:28;;;;;;;12.05;3.08;;;10.60;99.90;;;;;;5091246;28;20028;-66
2023/05/29 05:37:53;;;;;;;15.45;2.90;;;10.60;99.90;;;;;;5091722;28;20493;-66
2023/05/29 05:40:19;;;;;;;12.52;2.70;;;10.70;99.90;;;;;;5091008;28;20036;-65
2023/05/29 05:42:44;;;;;;;10.25;2.72;;;10.80;99.90;;;;;;5091258;28;20093;-66
2023/05/29 05:45:10;;;;;;;15.57;3.15;;;10.80;99.90;;;;;;5085061;28;20036;-66
2023/05/29 05:47:36;;;;;;;14.43;3.10;;;10.90;99.90;;;;;;5091088;28;20393;-66
2023/05/29 05:50:01;;;;;;;12.30;2.65;;;11.00;99.90;;;;;;5088927;28;20035;-66
2023/05/29 05:52:30;;;;;;;17.77;3.03;;;10.90;99.90;;;;;;5087811;28;20109;-66
2023/05/29 05:54:56;;;;;;;14.73;3.08;;;11.10;99.90;;;;;;5089594;28;20044;-66
2023/05/29 05:57:22;;;;;;;8.73;2.45;;;11.20;99.90;;;;;;5086098;28;20096;-66
2023/05/29 05:59:47;;;;;;;14.02;2.88;;;11.30;99.90;;;;;;5091381;28;20032;-66
2023/05/29 06:02:13;;;;;;;20.75;3.00;;;11.30;99.90;;;;;;5088542;28;20032;-67
2023/05/29 06:04:38;;;;;;;15.10;2.90;;;11.40;99.90;;;;;;5085970;28;20084;-67
2023/05/29 06:07:04;;;;;;;13.40;2.60;;;11.40;99.90;;;;;;5088991;28;20083;-66
2023/05/29 06:09:30;;;;;;;16.70;3.08;;;11.50;99.90;;;;;;5089810;28;20051;-66
2023/05/29 06:11:55;;;;;;;12.68;2.85;;;11.60;99.90;;;;;;5083731;28;20496;-66
2023/05/29 06:14:21;;;;;;;16.50;2.80;;;11.60;99.90;;;;;;5083805;28;20040;-66
2023/05/29 06:16:47;;;;;;;13.25;2.33;;;11.70;99.90;;;;;;5089344;28;20111;-66
2023/05/29 06:19:14;;;;;;;13.23;2.72;;;11.70;99.90;;;;;;5087867;28;20032;-67
2023/05/29 06:21:40;;;;;;;13.57;2.63;;;11.80;99.90;;;;;;5084132;28;20040;-67
2023/05/29 06:24:06;;;;;;;15.63;2.90;;;11.90;99.90;;;;;;5084578;28;20036;-66
2023/05/29 06:26:33;;;;;;;11.45;2.40;;;11.90;99.90;;;;;;5087386;28;20039;-66
2023/05/29 06:28:59;;;;;;;13.20;2.50;;;12.00;99.90;;;;;;5082443;28;20051;-67
2023/05/29 06:31:24;;;;;;;18.05;3.03;;;12.00;99.90;;;;;;5094597;28;20039;-66
2023/05/29 06:33:50;;;;;;;17.52;3.00;;;12.10;99.90;;;;;;5093934;28;20075;-66
2023/05/29 06:36:16;;;;;;;16.15;3.00;;;12.20;99.90;;;;;;5093636;28;20039;-66
2023/05/29 06:38:47;;;;;;;11.95;2.60;;;12.30;99.90;;;;;;5095151;28;20036;-66
2023/05/29 06:41:12;;;;;;;15.05;2.92;;;12.40;99.90;;;;;;5088639;28;20504;-67
2023/05/29 06:43:38;;;;;;;14.82;2.75;;;12.40;99.90;;;;;;5085752;28;20074;-67
2023/05/29 06:46:03;;;;;;;14.98;2.80;;;12.50;99.90;;;;;;5090017;28;20032;-66
2023/05/29 06:48:33;;;;;;;13.00;3.03;;;12.60;99.90;;;;;;5087509;28;20039;-67
2023/05/29 06:50:59;;;;;;;14.23;2.90;;;12.50;99.90;;;;;;5089361;28;20396;-67
2023/05/29 06:53:25;;;;;;;13.77;2.67;;;12.60;99.90;;;;;;5087220;28;20045;-66
2023/05/29 06:55:50;;;;;;;15.15;2.88;;;12.70;99.90;;;;;;5094045;28;20417;-65
2023/05/29 06:58:16;;;;;;;10.90;3.00;;;12.70;99.90;;;;;;5095228;28;20048;-66
2023/05/29 07:00:41;;;;;;;8.88;2.30;;;12.70;99.90;;;;;;5094949;28;20040;-66
2023/05/29 07:03:07;;;;;;;13.65;2.80;;;12.80;99.90;;;;;;5094662;28;20079;-66
2023/05/29 07:05:32;;;;;;;15.65;2.45;;;12.80;99.90;;;;;;5073618;28;20036;-66
2023/05/29 07:07:58;;;;;;;13.40;2.78;;;12.70;99.90;;;;;;5074622;28;20098;-66
2023/05/29 07:10:23;;;;;;;14.40;3.47;;;12.70;99.90;;;;;;5074328;28;20039;-66
2023/05/29 07:12:49;;;;;;;9.30;2.63;;;12.70;99.90;;;;;;5083606;28;20097;-66
2023/05/29 07:15:14;;;;;;;14.07;3.28;;;12.90;99.90;;;;;;5093831;28;20039;-66
2023/05/29 07:17:40;;;;;;;13.13;3.00;;;12.90;99.90;;;;;;5093663;28;20297;-66
2023/05/29 07:20:07;;;;;;;14.30;3.25;;;12.90;99.90;;;;;;5092342;28;20032;-66
2023/05/29 07:22:34;;;;;;;14.18;4.00;;;13.00;99.90;;;;;;5091989;28;20085;-66
2023/05/29 07:25:00;;;;;;;17.83;3.25;;;13.00;99.90;;;;;;5092694;28;20040;-66
2023/05/29 07:27:26;;;;;;;12.10;2.65;;;13.00;99.90;;;;;;5094251;28;20050;-67
2023/05/29 07:29:51;;;;;;;15.07;3.00;;;13.10;99.90;;;;;;5090303;28;20044;-66
2023/05/29 07:32:17;;;;;;;15.02;3.08;;;13.00;99.90;;;;;;5093735;28;20054;-66
2023/05/29 07:34:42;;;;;;;14.13;3.22;;;13.10;99.90;;;;;;5090088;28;20044;-66
2023/05/29 07:37:08;;;;;;;14.60;3.05;;;13.00;99.90;;;;;;5091343;28;20539;-67
2023/05/29 07:39:35;;;;;;;14.82;3.20;;;13.00;99.90;;;;;;5091691;28;20039;-66
2023/05/29 07:42:01;;;;;;;17.08;3.10;;;12.90;99.90;;;;;;5091553;28;20093;-67
2023/05/29 07:44:27;;;;;;;11.68;3.28;;;13.00;99.90;;;;;;5082719;28;20040;-66
2023/05/29 07:46:52;;;;;;;15.55;3.03;;;13.00;99.90;;;;;;5090953;28;20043;-66
2023/05/29 07:49:19;;;;;;;14.43;3.10;;;13.10;99.90;;;;;;5090180;28;20131;-66
2023/05/29 07:51:45;;;;;;;17.02;3.28;;;13.20;99.90;;;;;;5093916;28;20496;-66
2023/05/29 07:54:11;;;;;;;18.13;3.67;;;13.20;99.90;;;;;;5092202;28;20082;-66
2023/05/29 07:56:37;;;;;;;12.25;2.92;;;13.40;99.90;;;;;;5092891;28;20088;-66
2023/05/29 07:59:03;;;;;;;13.07;3.50;;;13.60;99.90;;;;;;5093922;28;20119;-66
2023/05/29 08:01:29;;;;;;;12.48;3.90;;;13.80;99.90;;;;;;5093608;28;20134;-66
2023/05/29 08:03:54;;;;;;;10.90;3.22;;;13.90;99.90;;;;;;5092129;28;20032;-66
2023/05/29 08:06:20;;;;;;;14.75;3.33;;;14.00;99.90;;;;;;5089448;28;20043;-66
2023/05/29 08:08:46;;;;;;;14.05;2.97;;;14.10;99.90;;;;;;5093388;28;20032;-66
2023/05/29 08:11:12;;;;;;;17.15;4.05;;;14.00;99.90;;;;;;5093630;28;20043;-66
2023/05/29 08:13:37;;;;;;;15.10;3.67;;;14.00;99.90;;;;;;5092905;28;20032;-65
2023/05/29 08:16:03;;;;;;;19.35;3.72;;;13.90;99.90;;;;;;5093159;28;20040;-66
2023/05/29 08:18:31;;;;;;;17.50;3.85;;;13.90;99.90;;;;;;5091809;28;20486;-66
2023/05/29 08:20:56;;;;;;;8.98;2.72;;;14.00;99.90;;;;;;5092384;28;20032;-66
2023/05/29 08:23:22;;;;;;;14.63;2.60;;;14.00;99.90;;;;;;5092727;28;20063;-66
2023/05/29 08:25:48;;;;;;;11.75;2.80;;;14.10;99.90;;;;;;5087310;28;20123;-66
2023/05/29 08:28:15;;;;;;;9.55;3.15;;;14.10;99.90;;;;;;5092132;28;20055;-65
2023/05/29 08:30:40;;;;;;;12.00;3.13;;;14.10;99.90;;;;;;5078400;22;20039;-66
2023/05/29 08:33:06;;;;;;;21.35;3.80;;;14.20;99.90;;;;;;5052648;28;20120;-66
2023/05/29 08:35:32;;;;;;;14.30;2.92;;;14.30;99.90;;;;;;5051554;28;20053;-66
2023/05/29 08:37:58;;;;;;;14.23;3.38;;;14.30;99.90;;;;;;5049798;28;20116;-66
2023/05/29 08:40:24;;;;;;;14.43;3.45;;;14.40;99.90;;;;;;5041220;28;20482;-66
2023/05/29 08:43:16;;;;;;;12.80;3.53;;;14.60;99.90;;;;;;5030511;28;20073;-67
2023/05/29 08:45:46;;;;;;;14.00;2.90;;;14.80;99.90;;;;;;5030481;28;20029;-66
2023/05/29 08:48:12;;;;;;;13.30;2.70;;;14.70;99.90;;;;;;5034155;28;20544;-66
2023/05/29 08:50:48;;;;;;;14.73;2.83;;;14.70;99.90;;;;;;5030442;28;20037;-66
2023/05/29 08:53:18;;;;;;;15.13;3.40;;;14.70;99.90;;;;;;5019418;28;20044;-66
2023/05/29 08:55:46;;;;;;;16.05;3.47;;;14.70;99.90;;;;;;5027748;28;20128;-66
2023/05/29 08:58:13;;;;;;;13.32;2.90;;;14.80;99.90;;;;;;5030683;28;20041;-67
2023/05/29 09:00:40;;;;;;;14.00;3.10;;;14.90;99.90;;;;;;5019409;28;20038;-67
2023/05/29 09:03:07;;;;;;;11.80;3.40;;;14.90;99.90;;;;;;5028126;28;20050;-67
2023/05/29 09:05:33;;;;;;;10.85;3.00;;;14.70;99.90;;;;;;5031671;28;20045;-67
2023/05/29 09:07:59;;;;;;;16.23;3.20;;;14.70;99.90;;;;;;5032046;28;20045;-67
2023/05/29 09:10:27;;;;;;;11.13;2.97;;;14.90;99.90;;;;;;5028393;28;20041;-66
2023/05/29 09:12:53;;;;;;;9.85;3.10;;;14.90;99.90;;;;;;5029396;28;20045;-67
2023/05/29 09:15:20;;;;;;;19.20;3.08;;;14.90;99.90;;;;;;5026140;28;20049;-67
2023/05/29 09:17:55;;;;;;;13.45;3.40;;;14.80;99.90;;;;;;5033874;28;20112;-66
2023/05/29 09:20:24;;;;;;;19.27;3.58;;;14.80;99.90;;;;;;5030866;28;20076;-67
2023/05/29 09:22:57;;;;;;;18.45;3.60;;;14.70;99.90;;;;;;5031452;28;20042;-66
2023/05/29 09:25:28;;;;;;;11.43;2.90;;;14.80;99.90;;;;;;5032552;28;20505;-66
2023/05/29 09:28:00;;;;;;;18.27;3.38;;;15.00;99.90;;;;;;5028750;28;20025;-66
2023/05/29 09:30:34;;;;;;;14.95;3.13;;;15.20;99.90;;;;;;5030079;28;20072;-66
2023/05/29 09:33:01;;;;;;;17.08;3.83;;;15.30;99.90;;;;;;5029120;28;20068;-66
2023/05/29 09:35:36;;;;;;;13.35;3.55;;;15.30;99.90;;;;;;5025658;28;20091;-67
2023/05/29 09:38:02;;;;;;;15.55;3.67;;;15.20;99.90;;;;;;5030584;28;20047;-66
2023/05/29 09:40:37;;;;;;;18.17;3.83;;;15.20;99.90;;;;;;5018953;28;20120;-66
2023/05/29 09:43:10;;;;;;;15.23;3.60;;;15.20;99.90;;;;;;5030027;28;20041;-66
2023/05/29 09:45:38;;;;;;;15.05;3.20;;;15.20;99.90;;;;;;5026276;28;20047;-67
2023/05/29 09:48:05;;;;;;;16.75;3.28;;;15.30;99.90;;;;;;5029700;28;20033;-66
2023/05/29 09:50:33;;;;;;;15.05;3.60;;;15.40;99.90;;;;;;5028388;28;20088;-66
2023/05/29 09:53:01;;;;;;;18.27;3.33;;;15.50;99.90;;;;;;5028292;28;20064;-66
2023/05/29 09:55:28;;;;;;;15.70;3.40;;;15.60;99.90;;;;;;5018773;28;20115;-66
2023/05/29 09:57:54;;;;;;;10.43;3.08;;;15.70;99.90;;;;;;5028357;28;20037;-66
2023/05/29 10:00:21;;;;;;;17.40;3.33;;;15.80;99.90;;;;;;5025548;28;20056;-66
2023/05/29 10:02:48;;;;;;;15.60;3.17;;;15.80;99.90;;;;;;5029349;28;20558;-66
2023/05/29 10:05:17;;;;;;;13.00;3.33;;;15.80;99.60;;;;;;5011600;28;20046;-66
2023/05/29 10:07:52;;;;;;;19.98;3.60;;;15.90;99.90;;;;;;5012147;28;20100;-66
2023/05/29 10:10:18;;;;;;;13.43;3.05;;;15.90;99.90;;;;;;5022827;28;20058;-65
2023/05/29 10:12:50;;;;;;;14.02;3.33;;;15.90;99.50;;;;;;5030579;28;20094;-66
2023/05/29 10:15:19;;;;;;;14.18;3.42;;;15.90;99.10;;;;;;5032957;28;20052;-66
2023/05/29 10:18:09;;;;;;;15.18;3.25;;;15.90;99.10;;;;;;5035406;28;20401;-66
2023/05/29 10:20:35;;;;;;;16.60;3.80;;;15.90;99.40;;;;;;5028990;28;20107;-66
2023/05/29 10:23:02;;;;;;;12.38;3.08;;;15.90;99.90;;;;;;5030422;28;20484;-66
2023/05/29 10:25:42;;;;;;;15.25;3.10;;;15.90;99.90;;;;;;5032486;28;20037;-66
2023/05/29 10:28:08;;;;;;;18.25;3.33;;;15.90;99.70;;;;;;5026594;28;20037;-66
2023/05/29 10:30:41;;;;;;;13.40;3.33;;;16.00;99.90;;;;;;5029269;28;20032;-66
2023/05/29 10:33:09;;;;;;;17.80;3.15;;;16.00;99.80;;;;;;5027595;28;20450;-67
2023/05/29 10:35:49;;;;;;;15.60;3.75;;;16.00;99.40;;;;;;5028049;28;20041;-67
2023/05/29 10:38:18;;;;;;;15.32;3.60;;;16.00;98.70;;;;;;5022547;28;20042;-67
2023/05/29 10:40:44;;;;;;;13.43;3.10;;;16.00;98.50;;;;;;5029323;28;20048;-66
2023/05/29 10:43:33;;;;;;;16.25;3.00;;;16.00;98.00;;;;;;5021177;28;20076;-66
2023/05/29 10:46:00;;;;;;;10.20;2.88;;;15.90;97.60;;;;;;5032808;28;20046;-66
2023/05/29 10:48:28;;;;;;;13.82;3.72;;;15.90;97.60;;;;;;5029644;28;20073;-66
2023/05/29 10:50:55;;;;;;;14.20;2.75;;;16.00;97.70;;;;;;5030916;28;20041;-66
2023/05/29 10:53:26;;;;;;;11.60;3.28;;;16.10;97.30;;;;;;5032034;28;20128;-67
2023/05/29 10:55:52;;;;;;;15.07;3.08;;;16.00;97.10;;;;;;5032254;28;20041;-67
2023/05/29 10:58:24;;;;;;;14.35;3.28;;;16.00;97.30;;;;;;5030444;28;20046;-66
2023/05/29 11:00:53;;;;;;;15.05;3.50;;;16.10;97.40;;;;;;5026692;28;20041;-67
2023/05/29 11:03:22;;;;;;;11.88;2.80;;;16.20;97.00;;;;;;5029630;28;20046;-66
2023/05/29 11:06:02;;;;;;;12.85;3.00;;;16.30;96.20;;;;;;5030317;28;20410;-66
2023/05/29 11:08:47;;;;;;;16.75;3.33;;;16.30;95.80;;;;;;5025065;28;20056;-67
2023/05/29 11:11:13;;;;;;;10.18;2.78;;;16.40;95.80;;;;;;5032907;28;20107;-66
2023/05/29 11:13:40;;;;;;;9.20;2.35;;;16.40;96.40;;;;;;5032096;28;20030;-66
2023/05/29 11:16:25;;;;;;;18.33;3.15;;;16.40;96.30;;;;;;5032868;28;20096;-66
2023/05/29 11:18:52;;;;;;;11.93;2.83;;;16.40;95.30;;;;;;5034401;28;20491;-66
2023/05/29 11:21:52;;;;;;;12.82;3.15;;;16.50;94.70;;;;;;5034519;28;20037;-66
2023/05/29 11:24:26;;;;;;;13.77;3.22;;;16.50;94.60;;;;;;5033468;28;20245;-66
2023/05/29 11:26:53;;;;;;;15.60;3.33;;;16.60;94.10;;;;;;5032017;28;20044;-66
2023/05/29 11:29:27;;;;;;;13.38;3.00;;;16.50;94.50;;;;;;5033073;28;20099;-66
2023/05/29 11:32:04;;;;;;;10.10;3.08;;;16.50;92.70;;;;;;5034042;28;20037;-66
2023/05/29 11:34:32;;;;;;;10.50;3.22;;;16.50;93.40;;;;;;5031950;28;20033;-66
2023/05/29 11:36:59;;;;;;;14.38;3.45;;;16.60;92.70;;;;;;5031577;28;20048;-66
2023/05/29 11:39:26;;;;;;;14.13;3.25;;;16.50;92.40;;;;;;5033526;28;20045;-66
2023/05/29 11:41:52;;;;;;;12.80;3.55;;;16.50;92.50;;;;;;5031181;28;20104;-67
2023/05/29 11:44:19;;;;;;;14.75;3.58;;;16.40;92.50;;;;;;5030775;28;20041;-66
2023/05/29 11:46:44;;;;;;;12.40;2.90;;;16.50;92.50;;;;;;5033290;28;20038;-65
2023/05/29 11:49:10;;;;;;;15.38;3.20;;;16.50;92.40;;;;;;5033379;28;20453;-65
2023/05/29 11:51:36;;;;;;;14.43;3.35;;;16.50;90.50;;;;;;5032471;28;20033;-65
2023/05/29 11:54:02;;;;;;;13.07;2.85;;;16.50;90.10;;;;;;5033425;28;20049;-65
2023/05/29 11:56:28;;;;;;;13.50;2.85;;;16.50;91.20;;;;;;5030564;28;20086;-67
2023/05/29 11:58:56;;;;;;;8.98;2.60;;;16.40;90.90;;;;;;5033220;28;20118;-67
2023/05/29 12:01:26;;;;;;;11.40;2.55;;;16.50;89.10;;;;;;5037294;28;20494;-66
2023/05/29 12:03:52;;;;;;;13.20;3.38;;;16.40;88.80;;;;;;5031401;28;20072;-66
2023/05/29 12:06:32;;;;;;;11.75;2.88;;;16.50;90.30;;;;;;5025996;28;20401;-67
2023/05/29 12:08:58;;;;;;;11.45;2.80;;;16.70;91.40;;;;;;5033040;28;20045;-67
2023/05/29 12:11:23;;;;;;;8.30;2.20;;;16.80;91.50;;;;;;5031855;28;20037;-66
2023/05/29 12:14:01;;;;;;;8.35;2.70;;;16.90;88.70;;;;;;5030356;28;20067;-66
2023/05/29 12:16:33;;;;;;;14.25;3.03;;;17.00;89.10;;;;;;5031017;28;20040;-66
2023/05/29 12:19:00;;;;;;;11.80;3.00;;;17.00;89.90;;;;;;5032288;28;20060;-67
2023/05/29 12:21:27;;;;;;;9.30;2.83;;;16.90;89.80;;;;;;5031095;28;20033;-66
2023/05/29 12:23:54;;;;;;;10.85;3.05;;;16.90;87.50;;;;;;5031807;28;20052;-66
2023/05/29 12:26:24;;;;;;;12.48;2.78;;;16.90;88.30;;;;;;5030271;28;20782;-67
2023/05/29 12:28:52;;;;;;;14.48;3.60;;;16.90;87.50;;;;;;5028175;28;20034;-67
2023/05/29 12:31:30;;;;;;;15.18;2.97;;;16.90;89.10;;;;;;5029576;28;20037;-67
2023/05/29 12:34:08;;;;;;;13.60;2.88;;;16.90;89.00;;;;;;5019231;28;20061;-67
2023/05/29 12:36:34;;;;;;;11.55;2.35;;;17.00;90.00;;;;;;5031292;28;20037;-67
2023/05/29 12:39:00;;;;;;;11.57;3.05;;;16.90;88.70;;;;;;5028381;28;20040;-66
2023/05/29 12:41:32;;;;;;;11.57;2.65;;;16.90;88.90;;;;;;5032044;28;20041;-66
2023/05/29 12:44:00;;;;;;;12.82;2.90;;;16.90;88.30;;;;;;5030167;28;20136;-66